Preston, Iowa
Current Conditions -  °F | °C
As of 1:35 AM on Monday 22 Dec 2014 (Local Time) from KCWI Reporting Station
Overcast Overcast  
Wind Chill: 25°   Ceiling: 3100
Heat Index: 34°   Visibility: 6mi
Dew Point: 30°   Wind: 12mph
Humidity: 87%   Direction: 150°SSE
Pressure: 29.91"   Gusts: NA
Location:  42.05°N, 90.41°W
Report Text: KCWI 220735Z AUTO 15010KT 6SM FEW014 BKN031 OVC048 01/M01 A2991 RMK AO1
Loading
Personal Weather Stations






























Interactive Weather Map New forecast layout! Learn more

10-Day Weather Forecast

Advertisements
Track Severe Weather on mobile